Ana Sayfa
METAR-TAF:

METAR-TAF

Havaalanları :

Istanbul Sabiha Gökçen, Türkiye

Sabiha Gökçen Havalimanı

Enlem: 40-53-55N, Boylam: 029-18-33E, yükseklik: 95 m

Güncel hava durumu gözlemi

Rapor saat 20:50 UTC de 37 dakika önce yapıldı.
Rüzgar kuzey/kuzeydoğudan 7 kt
Sıcaklık 6°C
Nem 70%
Basınç 1021 hPa
Görüş mesafesi 10 km veya daha fazla
1500 m altında bulut yok ve kümülonimbus yok

METAR: LTFJ 282050Z 03007KT CAVOK 06/01 Q1021 NOSIG RMK RWY24 35005KT

Saat: 00:27 (21:27 UTC)

Tahmin

Rapor saat 16:40 UTC de 4 saat ve 47 dakika önce yapıldı.
Ayın 28'si saat 18 UTC'den ayın 29'si saat 18 UTC'ye kadar geçerli Tahmin
Rüzgar kuzey/kuzeydoğudan 8 kt
Görüş mesafesi 10 km veya daha fazla
1500 m altında bulut yok ve kümülonimbus yok

TAF: LTFJ 281640Z 2818/2918 03008KT CAVOK

4.000'den fazla havaalanı için hava durumu gözlemleri ve tahminleri (METAR ve TAF raporları).

Kullanılabilir istasyonlar harita üzerinde sarı ve kırmızı noktalarla gösterilir.

İstasyonun adını görmek için fareyi noktanın üzerinde gezdirin.

Sonrasında hava gözlem ve tahminlerini görmek için tıklayın.

Haritayı değiştirmek için: yaklaştırmak için siyah artı işaretli yeşil düğmeye ve uzaklaştırmak için de eksi işaretli düğmeye hızla tıklayın; bitişik haritalar için yeşil okları kullanın.


METAR-TAF: